createdAt,value
2023-03-27T02:16:25.054Z,1.20
2023-03-27T02:19:20.869Z,1.30
2023-03-27T03:30:30.417Z,1.48
2023-03-27T03:33:22.556Z,1.33
2023-03-27T03:36:09.193Z,1.23
2023-03-27T03:38:59.367Z,1.65
2023-03-27T04:07:31.435Z,1.10
2023-03-27T04:10:36.289Z,1.00
2023-03-27T04:16:21.697Z,0.98
2023-03-27T04:24:50.502Z,1.38
2023-03-27T06:02:25.727Z,2.50
2023-03-27T06:08:22.292Z,1.98
2023-03-27T06:11:18.005Z,1.23
2023-03-27T06:26:05.205Z,1.00
2023-03-27T07:10:06.740Z,1.70
2023-03-27T07:12:59.571Z,1.60
2023-03-27T07:15:45.648Z,1.25
2023-03-27T07:58:24.427Z,1.15
2023-03-27T08:01:12.291Z,1.85
2023-03-27T08:03:59.481Z,1.17
2023-03-27T08:06:46.843Z,1.10
2023-03-27T08:09:39.523Z,1.00
2023-03-27T08:12:27.046Z,1.05
2023-03-27T08:15:19.910Z,0.93
2023-03-27T08:18:06.924Z,1.05
2023-03-27T08:37:54.097Z,0.68
2023-03-27T08:41:03.874Z,0.88
2023-03-27T08:44:01.735Z,0.80
2023-03-27T08:46:55.161Z,0.68
2023-03-27T08:49:46.422Z,1.10
2023-03-27T08:52:43.312Z,0.70
2023-03-27T08:55:41.690Z,0.95
2023-03-27T08:58:38.124Z,0.60
2023-03-27T09:02:06.175Z,1.15
2023-03-27T09:05:00.799Z,0.70
2023-03-27T09:07:56.941Z,0.90
2023-03-27T09:10:59.928Z,0.77
2023-03-27T09:16:49.842Z,1.30
2023-03-27T09:19:59.144Z,1.20
2023-03-27T09:22:52.674Z,0.68
2023-03-27T09:25:50.636Z,0.80
2023-03-27T09:28:50.867Z,0.88
2023-03-27T09:31:47.121Z,0.68
2023-03-27T09:34:33.521Z,2.10
2023-03-27T09:37:22.063Z,0.82
2023-03-27T09:40:19.251Z,1.00
2023-03-27T09:43:09.333Z,0.70
2023-03-27T09:45:59.241Z,0.77
2023-03-27T09:48:50.485Z,0.52
2023-03-27T09:51:43.605Z,0.90
2023-03-27T09:54:53.092Z,0.52
2023-03-27T09:57:42.087Z,0.60
2023-03-27T10:00:32.034Z,0.70
2023-03-27T10:03:19.300Z,0.55
2023-03-27T10:06:14.262Z,0.65
2023-03-27T10:09:23.847Z,0.57
2023-03-27T10:12:19.258Z,0.80
2023-03-27T10:15:24.371Z,0.57
2023-03-27T10:18:24.261Z,0.68
2023-03-27T10:21:19.414Z,0.60
2023-03-27T10:24:17.891Z,0.52
2023-03-27T10:27:28.528Z,0.43
2023-03-27T10:30:40.970Z,0.50
2023-03-27T10:33:47.385Z,0.50
2023-03-27T10:36:39.600Z,0.70
2023-03-27T10:39:35.826Z,0.70
2023-03-27T10:42:48.350Z,0.90
2023-03-27T10:45:43.906Z,0.73
2023-03-27T10:48:47.143Z,0.90
2023-03-27T10:51:46.996Z,0.60
2023-03-27T10:54:51.301Z,0.73
2023-03-27T10:57:38.271Z,0.60
2023-03-27T11:00:33.684Z,0.63
2023-03-27T11:03:28.380Z,0.70
2023-03-27T11:06:23.190Z,0.88
2023-03-27T11:09:17.413Z,0.75
2023-03-27T11:12:19.086Z,1.10
2023-03-27T11:15:17.256Z,0.80
2023-03-27T11:18:14.356Z,1.08
2023-03-27T11:21:12.811Z,0.77
2023-03-27T11:24:20.763Z,0.85
2023-03-27T11:27:18.940Z,1.15
2023-03-27T11:33:35.519Z,0.70
2023-03-27T11:36:37.605Z,0.80
2023-03-27T11:39:38.703Z,0.98
2023-03-27T11:42:28.821Z,1.02
2023-03-27T11:45:16.626Z,0.73
2023-03-27T11:48:17.025Z,0.88
2023-03-27T11:51:16.885Z,1.10
2023-03-27T11:54:15.553Z,0.85
2023-03-27T11:57:13.314Z,1.10
2023-03-27T12:00:34.593Z,1.20
2023-03-27T12:03:48.875Z,0.90
2023-03-27T12:06:48.236Z,0.80
2023-03-27T12:09:45.258Z,0.90
2023-03-27T12:13:28.715Z,1.35
2023-03-27T12:16:42.213Z,1.70
2023-03-27T12:19:51.698Z,1.83
2023-03-27T12:22:57.226Z,0.95
2023-03-27T12:26:44.166Z,0.80
2023-03-27T12:30:01.994Z,0.85
2023-03-27T12:33:19.216Z,1.10
2023-03-27T12:36:10.699Z,1.25
2023-03-27T12:38:58.999Z,1.05
2023-03-27T12:41:47.438Z,1.13
2023-03-27T12:45:05.421Z,1.52
2023-03-27T12:48:20.047Z,1.17
2023-03-27T12:51:14.192Z,0.70
2023-03-27T12:54:14.121Z,1.60
2023-03-27T12:57:05.893Z,1.63
2023-03-27T12:59:54.989Z,0.85
2023-03-27T13:03:22.848Z,0.60
2023-03-27T13:06:31.374Z,0.90
2023-03-27T13:09:42.389Z,1.10
2023-03-27T13:12:50.704Z,0.82
2023-03-27T13:15:51.482Z,0.57
2023-03-27T13:18:58.874Z,0.70
2023-03-27T13:21:54.863Z,0.80
2023-03-27T13:25:04.903Z,0.80
2023-03-27T13:28:34.341Z,0.98
2023-03-27T13:32:03.903Z,0.88
2023-03-27T13:35:05.032Z,0.80
2023-03-27T13:38:00.830Z,0.50
2023-03-27T13:41:52.094Z,0.80
2023-03-27T13:44:58.898Z,1.20
2023-03-27T13:48:21.071Z,0.70
2023-03-27T13:51:33.220Z,0.80
2023-03-27T13:55:02.974Z,0.88
2023-03-27T13:58:34.448Z,0.95
2023-03-27T14:01:42.210Z,0.90
2023-03-27T14:04:41.435Z,0.60
2023-03-27T14:07:56.444Z,0.50
2023-03-27T14:11:07.730Z,0.90
2023-03-27T14:14:17.008Z,0.82
2023-03-27T14:17:24.745Z,0.90
2023-03-27T14:20:22.103Z,0.98
2023-03-27T14:23:16.493Z,0.50
2023-03-27T14:26:25.511Z,1.10
2023-03-27T14:29:15.475Z,1.17
2023-03-27T14:41:01.502Z,0.82
2023-03-27T14:44:04.997Z,0.85
2023-03-27T14:49:50.838Z,0.75
2023-03-27T14:52:57.588Z,0.85
2023-03-27T14:55:55.404Z,0.90
2023-03-27T14:59:11.855Z,1.08
2023-03-27T15:02:17.082Z,0.90
2023-03-27T15:05:08.222Z,0.80
2023-03-27T15:07:56.510Z,1.25
2023-03-27T15:11:03.701Z,1.08
2023-03-27T15:13:57.813Z,1.13
2023-03-27T15:16:58.076Z,1.02
2023-03-27T15:22:35.334Z,0.90
2023-03-27T15:25:32.990Z,1.20
2023-03-27T15:28:23.736Z,1.25
2023-03-27T15:31:10.363Z,1.80
2023-03-27T15:34:03.757Z,3.28
2023-03-27T15:36:54.980Z,1.20
2023-03-27T15:39:59.348Z,2.30
2023-03-27T15:42:52.153Z,1.50
2023-03-27T15:45:40.175Z,1.17
2023-03-27T15:48:31.424Z,1.50
2023-03-27T15:51:28.882Z,0.93
2023-03-27T15:54:29.237Z,1.10
2023-03-27T15:57:18.346Z,0.98
2023-03-27T16:00:14.613Z,1.17
2023-03-27T16:05:47.148Z,1.10
2023-03-27T16:08:36.618Z,0.75
2023-03-27T16:11:42.106Z,1.15
2023-03-27T16:14:31.206Z,1.30
2023-03-27T16:17:24.891Z,1.30
2023-03-27T16:20:32.435Z,2.17
2023-03-27T16:23:18.544Z,3.50
2023-03-27T16:26:06.495Z,1.30
2023-03-27T16:28:52.981Z,1.42
2023-03-27T16:31:38.819Z,1.00
2023-03-27T16:34:26.534Z,1.33
2023-03-27T16:37:12.781Z,0.93
2023-03-27T16:39:58.207Z,1.75
2023-03-27T16:42:43.727Z,1.23
2023-03-27T16:45:29.785Z,1.85
2023-03-27T16:48:15.834Z,1.58
2023-03-27T16:51:02.993Z,1.50
2023-03-27T16:53:48.941Z,1.10
2023-03-27T16:56:35.171Z,1.30
2023-03-27T16:59:21.025Z,1.10
2023-03-27T17:02:07.240Z,1.50
2023-03-27T17:04:53.413Z,1.35
2023-03-27T17:07:44.890Z,1.25
2023-03-27T17:10:31.118Z,1.23
2023-03-27T17:13:17.237Z,1.38
2023-03-27T17:16:03.742Z,1.45
2023-03-27T17:18:49.526Z,1.25
2023-03-27T17:21:35.639Z,1.50
2023-03-27T17:24:22.917Z,1.70
2023-03-27T17:27:08.295Z,1.27
2023-03-27T17:29:55.582Z,1.08
2023-03-27T17:32:41.618Z,1.40
2023-03-27T17:35:27.709Z,1.10
2023-03-27T17:38:13.445Z,0.85
2023-03-27T17:41:00.805Z,1.10
2023-03-27T17:43:47.149Z,1.13
2023-03-27T17:46:33.148Z,1.42
2023-03-27T17:49:19.806Z,1.10
2023-03-27T17:52:10.972Z,1.13
2023-03-27T17:54:58.796Z,1.13
2023-03-27T17:57:53.117Z,1.30
2023-03-27T18:00:44.665Z,1.73
2023-03-27T18:03:30.656Z,1.23
2023-03-27T18:06:17.998Z,1.50
2023-03-27T18:09:04.164Z,1.45
2023-03-27T18:11:49.958Z,1.45
2023-03-27T18:14:38.127Z,1.67
2023-03-27T18:17:24.171Z,1.65
2023-03-27T18:20:10.513Z,1.35
2023-03-27T18:22:56.560Z,2.35
2023-03-27T18:25:43.068Z,1.60
2023-03-27T18:28:28.919Z,1.92
2023-03-27T18:31:17.727Z,2.03
2023-03-27T18:34:04.001Z,1.83
2023-03-27T18:36:51.784Z,2.33
2023-03-27T18:39:37.945Z,2.38
2023-03-27T18:42:24.355Z,2.40
2023-03-27T18:45:11.602Z,1.92
2023-03-27T18:47:58.940Z,2.00
2023-03-27T18:50:44.623Z,3.22
2023-03-27T18:53:30.955Z,6.80
2023-03-27T18:56:18.505Z,2.80
2023-03-27T18:59:04.879Z,3.60
2023-03-27T19:01:50.733Z,1.60
2023-03-27T19:04:37.781Z,1.75
2023-03-27T19:07:23.730Z,2.35
2023-03-27T19:10:10.339Z,2.47
2023-03-27T19:12:56.008Z,2.15
2023-03-27T19:16:21.226Z,1.33
2023-03-27T19:19:31.763Z,1.90
2023-03-27T19:22:40.780Z,1.48
2023-03-27T19:25:52.733Z,1.75
2023-03-27T19:28:40.254Z,1.90
2023-03-27T19:31:27.414Z,1.58
2023-03-27T19:34:13.177Z,1.83
2023-03-27T19:36:58.627Z,1.60
2023-03-27T19:39:46.248Z,1.30
2023-03-27T19:42:31.943Z,1.30
2023-03-27T19:45:18.085Z,1.38
2023-03-27T19:48:05.992Z,1.73
2023-03-27T19:50:57.779Z,1.58
2023-03-27T19:53:44.606Z,1.63
2023-03-27T19:56:31.940Z,1.42
2023-03-27T19:59:29.814Z,1.50
2023-03-27T20:02:16.634Z,1.55
2023-03-27T20:05:02.272Z,1.50
2023-03-27T20:07:47.729Z,1.63
2023-03-27T20:10:33.497Z,1.17
2023-03-27T20:13:20.666Z,0.98
2023-03-27T20:16:07.853Z,1.08
2023-03-27T20:19:03.770Z,1.05
2023-03-27T20:21:50.573Z,1.10
2023-03-27T20:24:36.543Z,1.17
2023-03-27T20:27:22.528Z,1.13
2023-03-27T20:30:14.130Z,1.20
2023-03-27T20:33:03.148Z,1.33
2023-03-27T20:35:49.078Z,1.38
2023-03-27T20:38:36.750Z,1.35
2023-03-27T20:41:22.837Z,1.15
2023-03-27T20:44:16.098Z,0.90
2023-03-27T20:47:10.897Z,1.50
2023-03-27T20:49:59.039Z,1.40
2023-03-27T20:52:45.192Z,3.42
2023-03-27T20:55:34.862Z,1.83
2023-03-27T20:58:31.846Z,1.17
2023-03-27T21:01:19.502Z,1.20
2023-03-27T21:04:06.901Z,1.65
2023-03-27T21:06:54.955Z,2.17
2023-03-27T21:09:41.776Z,1.90
2023-03-27T21:12:32.535Z,1.40
2023-03-27T21:15:20.517Z,1.83
2023-03-27T21:18:08.261Z,2.13
2023-03-27T21:20:55.857Z,1.90
2023-03-27T21:23:41.534Z,1.52
2023-03-27T21:26:27.744Z,1.52
2023-03-27T21:29:15.375Z,1.95
2023-03-27T21:32:01.251Z,1.60
2023-03-27T21:34:47.189Z,2.45
2023-03-27T21:37:37.553Z,2.35
2023-03-27T21:40:23.660Z,2.10
2023-03-27T21:43:11.296Z,1.67
2023-03-27T21:46:03.717Z,2.00
2023-03-27T21:48:50.041Z,2.35
2023-03-27T21:51:38.780Z,2.20
2023-03-27T21:54:25.946Z,1.98
2023-03-27T21:57:11.781Z,2.22
2023-03-27T21:59:58.013Z,1.90
2023-03-27T22:02:44.088Z,2.30
2023-03-27T22:05:30.257Z,2.55
2023-03-27T22:08:17.162Z,2.63
2023-03-27T22:11:04.606Z,2.55
2023-03-27T22:13:50.674Z,2.58
2023-03-27T22:16:36.622Z,2.40
2023-03-27T22:19:22.544Z,2.30
2023-03-27T22:22:08.707Z,2.88
2023-03-27T22:24:54.129Z,2.15
2023-03-27T22:27:41.780Z,2.65
2023-03-27T22:30:27.524Z,2.58
2023-03-27T22:33:13.324Z,2.75
2023-03-27T22:35:59.539Z,2.72
2023-03-27T22:38:49.575Z,2.60
2023-03-27T22:41:35.770Z,2.50
2023-03-27T22:44:22.874Z,2.40
2023-03-27T22:47:08.561Z,2.97
2023-03-27T22:49:57.671Z,2.50
2023-03-27T22:52:43.396Z,2.70
2023-03-27T22:55:33.083Z,3.08
2023-03-27T22:58:27.934Z,2.60
2023-03-27T23:01:24.315Z,2.70
2023-03-27T23:04:10.045Z,2.40
2023-03-27T23:07:01.200Z,2.58
2023-03-27T23:09:46.616Z,2.92
2023-03-27T23:12:32.399Z,2.40
2023-03-27T23:15:29.891Z,3.20
2023-03-27T23:18:17.400Z,3.22
2023-03-27T23:21:04.974Z,2.78
2023-03-27T23:23:50.776Z,2.58
2023-03-27T23:26:36.276Z,2.63
2023-03-27T23:29:22.028Z,2.70
2023-03-27T23:32:07.817Z,2.88
2023-03-27T23:34:54.947Z,3.03
2023-03-27T23:37:40.968Z,2.60
2023-03-27T23:40:26.339Z,2.58
2023-03-27T23:43:12.758Z,3.08
2023-03-27T23:46:29.977Z,2.47
2023-03-27T23:49:15.885Z,2.80
2023-03-27T23:52:03.526Z,2.80
2023-03-27T23:54:49.505Z,2.55
2023-03-27T23:57:34.916Z,2.92
